createdAt,value
2022-09-28T00:01:19.216Z,12.80
2022-09-28T00:03:49.280Z,11.50
2022-09-28T00:06:24.412Z,11.80
2022-09-28T00:08:52.886Z,12.00
2022-09-28T00:11:22.402Z,10.60
2022-09-28T00:13:52.832Z,9.50
2022-09-28T00:16:24.270Z,8.90
2022-09-28T00:18:53.986Z,6.80
2022-09-28T00:21:25.137Z,6.80
2022-09-28T00:24:17.284Z,6.00
2022-09-28T00:26:51.995Z,5.80
2022-09-28T00:29:23.612Z,6.10
2022-09-28T00:31:53.146Z,5.60
2022-09-28T00:34:20.961Z,5.80
2022-09-28T00:36:49.615Z,5.90
2022-09-28T00:39:18.063Z,5.70
2022-09-28T00:41:47.216Z,5.40
2022-09-28T00:44:42.495Z,5.10
2022-09-28T00:47:17.834Z,5.20
2022-09-28T00:50:12.824Z,5.20
2022-09-28T00:52:42.821Z,4.70
2022-09-28T00:55:16.213Z,4.60
2022-09-28T00:57:51.271Z,4.40
2022-09-28T01:00:19.580Z,4.80
2022-09-28T01:02:48.343Z,4.40
2022-09-28T01:05:17.800Z,4.20
2022-09-28T01:07:47.041Z,3.60
2022-09-28T01:10:15.552Z,3.40
2022-09-28T01:12:43.601Z,3.70
2022-09-28T01:15:11.820Z,3.60
2022-09-28T01:18:11.896Z,3.80
2022-09-28T01:21:02.503Z,3.70
2022-09-28T01:23:48.777Z,3.80
2022-09-28T01:26:31.930Z,3.70
2022-09-28T01:29:17.739Z,3.10
2022-09-28T01:31:52.979Z,3.50
2022-09-28T01:34:56.501Z,2.60
2022-09-28T01:37:32.471Z,2.70
2022-09-28T01:40:03.926Z,3.10
2022-09-28T01:42:36.090Z,2.90
2022-09-28T01:45:12.366Z,3.10
2022-09-28T01:47:41.352Z,2.90
2022-09-28T01:50:18.230Z,3.00
2022-09-28T01:52:58.886Z,3.30
2022-09-28T01:55:39.150Z,3.00
2022-09-28T01:58:16.107Z,2.60
2022-09-28T02:00:49.258Z,2.50
2022-09-28T02:03:33.111Z,2.50
2022-09-28T02:06:08.680Z,2.40
2022-09-28T02:09:03.467Z,2.60
2022-09-28T02:11:45.177Z,2.30
2022-09-28T02:14:17.604Z,2.30
2022-09-28T02:16:49.596Z,2.30
2022-09-28T02:19:26.086Z,2.30
2022-09-28T02:22:14.090Z,2.20
2022-09-28T02:25:07.957Z,2.10
2022-09-28T02:27:45.459Z,2.50
2022-09-28T02:30:14.961Z,2.50
2022-09-28T02:32:48.039Z,2.50
2022-09-28T02:35:18.523Z,2.40
2022-09-28T02:37:47.072Z,2.90
2022-09-28T02:40:22.387Z,3.00
2022-09-28T02:43:11.566Z,3.20
2022-09-28T02:45:56.289Z,3.10
2022-09-28T02:49:00.172Z,3.10
2022-09-28T02:51:38.121Z,3.50
2022-09-28T02:54:20.905Z,3.30
2022-09-28T02:57:32.208Z,3.70
2022-09-28T03:00:12.041Z,3.90
2022-09-28T03:02:52.313Z,3.80
2022-09-28T03:05:39.194Z,3.80
2022-09-28T03:08:15.477Z,3.50
2022-09-28T03:10:45.784Z,3.80
2022-09-28T03:13:14.702Z,3.90
2022-09-28T03:15:48.536Z,3.90
2022-09-28T03:18:18.095Z,3.80
2022-09-28T03:20:47.003Z,3.60
2022-09-28T03:23:29.951Z,4.20
2022-09-28T03:25:58.137Z,4.80
2022-09-28T03:28:26.576Z,5.00
2022-09-28T03:30:54.558Z,5.30
2022-09-28T03:33:23.130Z,5.20
2022-09-28T03:35:54.545Z,5.50
2022-09-28T03:38:22.657Z,6.40
2022-09-28T03:40:58.700Z,6.60
2022-09-28T03:43:28.334Z,6.90
2022-09-28T03:45:58.805Z,7.00
2022-09-28T03:48:36.492Z,6.60
2022-09-28T03:51:09.218Z,7.60
2022-09-28T03:53:37.283Z,7.80
2022-09-28T03:56:15.520Z,8.00
2022-09-28T03:58:43.310Z,7.50
2022-09-28T04:01:16.865Z,8.00
2022-09-28T04:03:45.953Z,7.30
2022-09-28T04:06:14.471Z,8.30
2022-09-28T04:08:43.534Z,8.30
2022-09-28T04:11:12.157Z,7.60
2022-09-28T04:13:40.031Z,7.60
2022-09-28T04:16:12.067Z,7.90
2022-09-28T04:18:43.038Z,8.30
2022-09-28T04:21:13.309Z,8.00
2022-09-28T04:23:45.852Z,8.60
2022-09-28T04:26:19.771Z,8.10
2022-09-28T04:29:07.677Z,8.20
2022-09-28T04:31:53.957Z,8.60
2022-09-28T04:34:29.785Z,8.00
2022-09-28T04:36:59.758Z,8.80
2022-09-28T04:39:27.798Z,8.70
2022-09-28T04:41:57.222Z,8.30
2022-09-28T04:44:25.011Z,7.90
2022-09-28T04:47:01.743Z,8.10
2022-09-28T04:49:35.497Z,9.30
2022-09-28T04:52:18.552Z,8.40
2022-09-28T04:54:49.275Z,8.30
2022-09-28T04:57:17.787Z,8.50
2022-09-28T04:59:45.883Z,8.20
2022-09-28T05:02:15.124Z,8.90
2022-09-28T05:05:15.292Z,8.10
2022-09-28T05:08:06.188Z,8.10
2022-09-28T05:10:34.878Z,8.40
2022-09-28T05:13:02.951Z,9.10
2022-09-28T05:15:31.234Z,8.30
2022-09-28T05:17:59.311Z,9.40
2022-09-28T05:20:42.241Z,8.90
2022-09-28T05:23:13.422Z,7.90
2022-09-28T05:25:43.078Z,7.90
2022-09-28T05:28:28.561Z,7.30
2022-09-28T05:31:28.534Z,7.70
2022-09-28T05:34:19.557Z,8.60
2022-09-28T05:36:47.425Z,9.00
2022-09-28T05:39:15.314Z,8.90
2022-09-28T05:41:43.164Z,9.60
2022-09-28T05:44:11.229Z,9.00
2022-09-28T05:46:39.078Z,10.00
2022-09-28T05:49:06.889Z,10.40
2022-09-28T05:51:34.638Z,10.50
2022-09-28T05:54:05.957Z,10.40
2022-09-28T05:56:35.631Z,9.60
2022-09-28T05:59:07.891Z,9.20
2022-09-28T06:01:37.156Z,8.60
2022-09-28T06:04:09.083Z,8.90
2022-09-28T06:06:38.975Z,8.50
2022-09-28T06:09:06.726Z,9.00
2022-09-28T06:11:35.020Z,9.10
2022-09-28T06:14:21.515Z,8.80
2022-09-28T06:16:50.260Z,8.30
2022-09-28T06:19:18.618Z,8.20
2022-09-28T06:22:05.349Z,7.90
2022-09-28T06:24:37.151Z,8.70
2022-09-28T06:27:04.949Z,8.30
2022-09-28T06:29:32.894Z,22.40
2022-09-28T06:32:01.383Z,10.00
2022-09-28T06:34:30.092Z,7.50
2022-09-28T06:36:57.941Z,8.40
2022-09-28T06:39:26.340Z,8.30
2022-09-28T06:41:54.100Z,8.30
2022-09-28T06:44:22.167Z,8.00
2022-09-28T06:47:19.264Z,7.60
2022-09-28T06:50:13.680Z,8.40
2022-09-28T06:52:53.900Z,7.90
2022-09-28T06:55:46.206Z,7.20
2022-09-28T06:58:17.424Z,6.70
2022-09-28T07:00:46.360Z,7.40
2022-09-28T07:03:17.081Z,7.90
2022-09-28T07:05:56.066Z,9.30
2022-09-28T07:09:27.566Z,8.40
2022-09-28T07:12:13.268Z,8.10
2022-09-28T07:15:02.530Z,8.70
2022-09-28T07:17:32.006Z,7.80
2022-09-28T07:20:14.094Z,7.10
2022-09-28T07:22:48.143Z,7.20
2022-09-28T07:25:20.619Z,7.30
2022-09-28T07:28:02.014Z,6.90
2022-09-28T07:30:48.523Z,6.70
2022-09-28T07:33:38.923Z,6.80
2022-09-28T07:36:18.012Z,8.00
2022-09-28T07:38:46.390Z,8.00
2022-09-28T07:41:16.926Z,7.20
2022-09-28T07:43:48.473Z,7.40
2022-09-28T07:46:17.772Z,7.10
2022-09-28T07:48:55.772Z,6.50
2022-09-28T07:51:44.838Z,7.00
2022-09-28T07:54:24.164Z,7.40
2022-09-28T07:57:00.863Z,7.50
2022-09-28T07:59:37.053Z,7.20
2022-09-28T08:02:24.539Z,7.60
2022-09-28T08:04:52.896Z,7.30
2022-09-28T08:07:24.249Z,6.90
2022-09-28T08:09:58.526Z,7.30
2022-09-28T08:12:29.306Z,8.00
2022-09-28T08:15:13.138Z,7.30
2022-09-28T08:17:49.324Z,7.50
2022-09-28T08:20:38.803Z,7.30
2022-09-28T08:23:08.836Z,8.20
2022-09-28T08:25:38.394Z,7.90
2022-09-28T08:28:07.539Z,7.40
2022-09-28T08:30:41.544Z,7.00
2022-09-28T08:33:21.868Z,7.60
2022-09-28T08:35:59.293Z,7.10
2022-09-28T08:38:36.656Z,7.60
2022-09-28T08:41:35.010Z,7.10
2022-09-28T08:44:25.576Z,6.50
2022-09-28T08:47:54.839Z,6.30
2022-09-28T08:50:46.984Z,6.70
2022-09-28T08:53:41.716Z,6.00
2022-09-28T08:56:49.753Z,6.30
2022-09-28T08:59:22.484Z,6.30
2022-09-28T09:01:58.218Z,5.80
2022-09-28T09:04:27.279Z,6.30
2022-09-28T09:07:20.747Z,6.30
2022-09-28T09:10:48.179Z,6.30
2022-09-28T09:13:33.930Z,6.10
2022-09-28T09:16:19.983Z,5.00
2022-09-28T09:19:28.407Z,18.20
2022-09-28T09:22:39.239Z,5.20
2022-09-28T09:25:18.249Z,4.40
2022-09-28T09:27:58.037Z,3.80
2022-09-28T09:30:31.596Z,3.60
2022-09-28T09:33:05.367Z,3.50
2022-09-28T09:36:28.189Z,3.40
2022-09-28T09:39:36.598Z,3.00
2022-09-28T09:42:49.262Z,3.20
2022-09-28T09:45:54.017Z,3.00
2022-09-28T09:48:59.814Z,2.90
2022-09-28T09:51:37.096Z,2.70
2022-09-28T09:54:29.460Z,2.50
2022-09-28T09:57:05.237Z,2.70
2022-09-28T10:00:03.146Z,2.80
2022-09-28T10:02:49.923Z,2.30
2022-09-28T10:05:31.039Z,2.40
2022-09-28T10:08:01.798Z,3.50
2022-09-28T10:10:37.332Z,2.80
2022-09-28T10:13:10.382Z,2.50
2022-09-28T10:15:41.325Z,2.40
2022-09-28T10:18:21.678Z,2.50
2022-09-28T10:21:14.032Z,2.50
2022-09-28T10:24:04.189Z,2.30
2022-09-28T10:26:39.530Z,2.00
2022-09-28T10:29:25.070Z,2.30
2022-09-28T10:31:54.721Z,2.40
2022-09-28T10:34:40.288Z,2.40
2022-09-28T10:37:13.581Z,3.30
2022-09-28T10:39:59.272Z,2.70
2022-09-28T10:42:32.435Z,2.30
2022-09-28T10:45:07.290Z,2.40
2022-09-28T10:47:44.632Z,2.40
2022-09-28T10:50:27.634Z,3.20
2022-09-28T10:53:20.602Z,3.40
2022-09-28T10:56:23.803Z,3.50
2022-09-28T10:58:59.027Z,3.00
2022-09-28T11:01:39.469Z,2.70
2022-09-28T11:04:10.956Z,2.70
2022-09-28T11:06:41.913Z,2.60
2022-09-28T11:09:31.155Z,2.30
2022-09-28T11:12:06.542Z,2.00
2022-09-28T11:14:42.086Z,2.40
2022-09-28T11:17:24.554Z,2.60
2022-09-28T11:19:53.865Z,2.40
2022-09-28T11:22:32.363Z,2.30
2022-09-28T11:25:18.244Z,2.10
2022-09-28T11:27:50.615Z,2.00
2022-09-28T11:30:27.714Z,2.20
2022-09-28T11:33:20.144Z,2.10
2022-09-28T11:36:21.467Z,1.90
2022-09-28T11:39:09.813Z,1.50
2022-09-28T11:41:59.372Z,1.70
2022-09-28T11:44:48.540Z,1.60
2022-09-28T11:47:41.706Z,2.30
2022-09-28T11:50:24.425Z,1.90
2022-09-28T11:53:04.102Z,1.50
2022-09-28T11:55:38.852Z,1.70
2022-09-28T11:58:16.021Z,1.60
2022-09-28T12:00:50.874Z,1.50
2022-09-28T12:03:26.170Z,1.60
2022-09-28T12:06:08.824Z,1.50
2022-09-28T12:08:43.554Z,1.80
2022-09-28T12:11:52.549Z,1.60
2022-09-28T12:14:31.087Z,1.40
2022-09-28T12:17:22.624Z,1.80
2022-09-28T12:20:00.677Z,1.70
2022-09-28T12:22:48.318Z,1.70
2022-09-28T12:25:21.201Z,2.10
2022-09-28T12:27:54.173Z,2.00
2022-09-28T12:30:27.160Z,2.10
2022-09-28T12:33:15.460Z,1.70
2022-09-28T12:36:02.811Z,1.60
2022-09-28T12:38:33.292Z,1.60
2022-09-28T12:41:18.613Z,2.00
2022-09-28T12:44:04.713Z,2.20
2022-09-28T12:46:54.355Z,1.60
2022-09-28T12:50:37.150Z,2.00
2022-09-28T12:52:44.758Z,2.40
2022-09-28T12:55:25.110Z,2.70
2022-09-28T12:57:58.609Z,2.30
2022-09-28T13:00:36.237Z,2.30
2022-09-28T13:03:31.821Z,2.80
2022-09-28T13:06:36.824Z,3.00
2022-09-28T13:09:22.626Z,2.70
2022-09-28T13:11:54.874Z,2.60
2022-09-28T13:14:57.680Z,2.70
2022-09-28T13:17:37.897Z,2.40
2022-09-28T13:20:32.185Z,2.60
2022-09-28T13:23:19.953Z,2.50
2022-09-28T13:25:56.357Z,37.10
2022-09-28T13:28:27.366Z,4.60
2022-09-28T13:33:37.470Z,2.70
2022-09-28T13:36:30.722Z,2.80
2022-09-28T13:39:01.440Z,2.70
2022-09-28T13:41:36.701Z,2.60
2022-09-28T13:44:13.525Z,2.70
2022-09-28T13:46:58.459Z,2.30
2022-09-28T13:49:47.285Z,2.50
2022-09-28T13:52:50.664Z,2.70
2022-09-28T13:55:54.107Z,2.60
2022-09-28T13:58:30.993Z,2.50
2022-09-28T14:01:17.461Z,2.30
2022-09-28T14:04:10.471Z,1.90
2022-09-28T14:06:44.490Z,1.80
2022-09-28T14:09:19.028Z,1.90
2022-09-28T14:11:59.040Z,1.70
2022-09-28T14:14:49.432Z,1.90
2022-09-28T14:17:26.206Z,1.70
2022-09-28T14:20:10.682Z,2.10
2022-09-28T14:23:01.056Z,1.70
2022-09-28T14:25:43.437Z,2.10
2022-09-28T14:28:27.746Z,1.50
2022-09-28T14:30:58.326Z,1.60
2022-09-28T14:33:31.523Z,1.50
2022-09-28T14:36:05.925Z,1.80
2022-09-28T14:39:03.472Z,1.90
2022-09-28T14:41:41.987Z,1.60
2022-09-28T14:44:16.427Z,1.70
2022-09-28T14:46:46.024Z,1.90
2022-09-28T14:49:19.786Z,1.50
2022-09-28T14:51:47.598Z,1.90
2022-09-28T14:54:22.832Z,2.60
2022-09-28T14:56:53.584Z,6.10
2022-09-28T14:59:25.216Z,2.70
2022-09-28T15:02:13.477Z,1.60
2022-09-28T15:04:45.899Z,1.90
2022-09-28T15:07:22.496Z,1.70
2022-09-28T15:09:53.040Z,1.90
2022-09-28T15:12:27.686Z,1.80
2022-09-28T15:14:59.129Z,1.60
2022-09-28T15:17:31.578Z,1.70
2022-09-28T15:20:17.321Z,1.50
2022-09-28T15:22:47.583Z,1.70
2022-09-28T15:25:20.183Z,1.60
2022-09-28T15:27:54.186Z,1.60
2022-09-28T15:30:27.980Z,1.70
2022-09-28T15:33:17.177Z,1.90
2022-09-28T15:36:02.369Z,2.40
2022-09-28T15:38:33.360Z,2.00
2022-09-28T15:41:06.780Z,2.20
2022-09-28T15:43:37.203Z,2.10
2022-09-28T15:46:23.610Z,2.00
2022-09-28T15:48:55.529Z,1.90
2022-09-28T15:51:24.642Z,2.20
2022-09-28T15:54:04.634Z,2.50
2022-09-28T15:56:59.743Z,2.60
2022-09-28T15:59:36.965Z,3.80
2022-09-28T16:02:25.723Z,4.10
2022-09-28T16:04:56.188Z,3.30
2022-09-28T16:07:35.670Z,3.10
2022-09-28T16:10:12.032Z,3.20
2022-09-28T16:12:54.101Z,2.80
2022-09-28T16:15:27.876Z,2.80
2022-09-28T16:18:02.980Z,15.70
2022-09-28T16:20:34.747Z,3.50
2022-09-28T16:23:34.230Z,4.10
2022-09-28T16:26:11.326Z,3.30
2022-09-28T16:28:39.016Z,3.30
2022-09-28T16:31:22.215Z,4.00
2022-09-28T16:33:54.553Z,3.40
2022-09-28T16:36:27.583Z,3.30
2022-09-28T16:38:56.061Z,3.60
2022-09-28T16:41:27.558Z,3.80
2022-09-28T16:43:59.779Z,3.40
2022-09-28T16:46:37.187Z,3.80
2022-09-28T16:49:07.025Z,3.50
2022-09-28T16:51:34.847Z,3.60
2022-09-28T16:54:33.723Z,3.50
2022-09-28T16:57:03.393Z,4.70
2022-09-28T16:59:31.704Z,6.00
2022-09-28T17:01:59.635Z,6.10
2022-09-28T17:04:27.564Z,5.60
2022-09-28T17:06:56.467Z,5.50
2022-09-28T17:09:24.327Z,4.40
2022-09-28T17:11:57.059Z,4.60
2022-09-28T17:14:24.903Z,5.10
2022-09-28T17:17:13.798Z,5.70
2022-09-28T17:19:42.528Z,5.40
2022-09-28T17:22:10.597Z,6.20
2022-09-28T17:24:38.542Z,6.30
2022-09-28T17:27:07.479Z,6.10
2022-09-28T17:29:35.336Z,6.20
2022-09-28T17:32:05.059Z,6.30
2022-09-28T17:34:32.773Z,6.90
2022-09-28T17:37:00.584Z,7.80
2022-09-28T17:39:28.564Z,7.90
2022-09-28T17:41:56.287Z,7.70
2022-09-28T17:44:24.017Z,7.60
2022-09-28T17:46:52.386Z,8.50
2022-09-28T17:49:20.155Z,9.60
2022-09-28T17:51:47.898Z,10.20
2022-09-28T17:54:20.183Z,9.80
2022-09-28T17:56:48.484Z,9.90
2022-09-28T17:59:18.591Z,10.20
2022-09-28T18:01:48.270Z,9.00
2022-09-28T18:04:39.759Z,8.10
2022-09-28T18:07:05.161Z,8.70
2022-09-28T18:09:32.905Z,8.60
2022-09-28T18:12:04.157Z,8.00
2022-09-28T18:14:32.115Z,8.40
2022-09-28T18:17:00.019Z,9.80
2022-09-28T18:19:32.019Z,9.90
2022-09-28T18:22:01.628Z,10.40
2022-09-28T18:24:30.048Z,10.40
2022-09-28T18:26:58.126Z,46.60
2022-09-28T18:29:28.021Z,21.30
2022-09-28T18:31:57.855Z,9.00
2022-09-28T18:34:25.565Z,8.10
2022-09-28T18:36:53.486Z,7.40
2022-09-28T18:39:21.597Z,6.80
2022-09-28T18:41:49.279Z,7.40
2022-09-28T18:44:17.110Z,6.20
2022-09-28T18:46:44.906Z,5.20
2022-09-28T18:49:12.710Z,4.60
2022-09-28T18:51:40.620Z,4.00
2022-09-28T18:54:08.492Z,4.30
2022-09-28T18:56:38.116Z,4.90
2022-09-28T18:59:11.772Z,6.20
2022-09-28T19:01:49.073Z,4.90
2022-09-28T19:04:17.246Z,3.60
2022-09-28T19:06:47.700Z,3.70
2022-09-28T19:09:22.123Z,3.60
2022-09-28T19:11:50.284Z,4.60
2022-09-28T19:14:18.086Z,4.40
2022-09-28T19:16:46.578Z,3.80
2022-09-28T19:19:17.573Z,4.50
2022-09-28T19:21:45.431Z,3.60
2022-09-28T19:24:15.487Z,3.00
2022-09-28T19:26:44.085Z,4.10
2022-09-28T19:29:12.615Z,3.10
2022-09-28T19:31:41.615Z,2.70
2022-09-28T19:34:11.925Z,2.30
2022-09-28T19:36:42.209Z,2.80
2022-09-28T19:39:13.579Z,3.90
2022-09-28T19:41:47.885Z,2.80
2022-09-28T19:44:27.818Z,2.60
2022-09-28T19:47:07.596Z,2.40
2022-09-28T19:49:39.000Z,2.40
2022-09-28T19:52:15.902Z,3.10
2022-09-28T19:54:58.301Z,3.20
2022-09-28T19:57:28.116Z,2.80
2022-09-28T20:00:01.653Z,2.70
2022-09-28T20:02:34.364Z,2.70
2022-09-28T20:05:02.982Z,2.40
2022-09-28T20:07:33.051Z,2.60
2022-09-28T20:10:01.128Z,2.60
2022-09-28T20:12:28.939Z,2.30
2022-09-28T20:14:56.669Z,2.90
2022-09-28T20:17:24.374Z,2.70
2022-09-28T20:19:52.581Z,2.40
2022-09-28T20:22:21.370Z,2.80
2022-09-28T20:24:49.226Z,2.60
2022-09-28T20:27:17.098Z,2.70
2022-09-28T20:29:44.831Z,3.20
2022-09-28T20:32:12.636Z,3.00
2022-09-28T20:34:40.339Z,3.30
2022-09-28T20:37:08.275Z,3.00
2022-09-28T20:39:36.149Z,2.90
2022-09-28T20:42:03.906Z,3.40
2022-09-28T20:44:31.663Z,2.90
2022-09-28T20:47:00.101Z,3.20
2022-09-28T20:49:28.347Z,2.80
2022-09-28T20:51:56.221Z,3.20
2022-09-28T20:54:23.995Z,3.00
2022-09-28T20:56:52.057Z,3.00
2022-09-28T20:59:22.936Z,2.90
2022-09-28T21:01:51.339Z,3.60
2022-09-28T21:04:19.765Z,3.90
2022-09-28T21:06:47.743Z,3.60
2022-09-28T21:09:15.461Z,3.80
2022-09-28T21:11:43.487Z,3.70
2022-09-28T21:14:11.362Z,3.60
2022-09-28T21:16:39.160Z,4.10
2022-09-28T21:19:07.000Z,4.20
2022-09-28T21:21:34.872Z,4.60
2022-09-28T21:24:03.236Z,4.80
2022-09-28T21:26:32.144Z,4.70
2022-09-28T21:29:03.114Z,4.60
2022-09-28T21:31:39.049Z,4.20
2022-09-28T21:34:09.569Z,4.40
2022-09-28T21:36:37.299Z,4.20
2022-09-28T21:39:09.568Z,4.40
2022-09-28T21:41:38.508Z,4.20
2022-09-28T21:44:07.201Z,4.70
2022-09-28T21:46:36.525Z,4.60
2022-09-28T21:49:07.552Z,4.90
2022-09-28T21:51:36.183Z,5.50
2022-09-28T21:54:04.478Z,5.90
2022-09-28T21:56:32.320Z,7.20
2022-09-28T21:59:01.457Z,10.20
2022-09-28T22:01:29.410Z,13.30
2022-09-28T22:03:57.904Z,12.20
2022-09-28T22:06:28.344Z,9.80
2022-09-28T22:08:57.074Z,8.60
2022-09-28T22:11:27.889Z,8.30
2022-09-28T22:13:58.539Z,8.90
2022-09-28T22:16:30.114Z,9.10
2022-09-28T22:18:59.339Z,8.00
2022-09-28T22:21:29.995Z,7.50
2022-09-28T22:24:02.723Z,8.60
2022-09-28T22:26:32.431Z,12.90
2022-09-28T22:29:06.950Z,10.00
2022-09-28T22:31:37.462Z,12.70
2022-09-28T22:34:06.268Z,14.30
2022-09-28T22:36:34.556Z,10.60
2022-09-28T22:39:02.481Z,9.30
2022-09-28T22:41:30.255Z,8.90
2022-09-28T22:43:59.101Z,9.50
2022-09-28T22:46:29.315Z,9.60
2022-09-28T22:48:59.431Z,13.00
2022-09-28T22:51:29.357Z,16.70
2022-09-28T22:53:57.846Z,16.30
2022-09-28T22:56:25.714Z,13.70
2022-09-28T22:58:53.918Z,14.00
2022-09-28T23:01:29.620Z,9.80
2022-09-28T23:03:58.430Z,10.50
2022-09-28T23:06:29.085Z,9.10
2022-09-28T23:08:57.404Z,9.00
2022-09-28T23:11:25.577Z,8.70
2022-09-28T23:13:55.948Z,8.00
2022-09-28T23:16:25.839Z,7.50
2022-09-28T23:18:55.138Z,7.20
2022-09-28T23:21:25.318Z,6.90
2022-09-28T23:23:56.456Z,6.60
2022-09-28T23:26:27.079Z,7.20
2022-09-28T23:28:55.762Z,6.20
2022-09-28T23:31:27.987Z,6.60
2022-09-28T23:33:59.384Z,7.10
2022-09-28T23:36:27.823Z,6.10
2022-09-28T23:38:56.260Z,6.60
2022-09-28T23:41:24.127Z,6.20
2022-09-28T23:43:51.995Z,6.50
2022-09-28T23:46:21.071Z,6.70
2022-09-28T23:48:50.114Z,7.70
2022-09-28T23:51:18.533Z,7.00
2022-09-28T23:53:46.423Z,7.60
2022-09-28T23:56:14.752Z,7.90
2022-09-28T23:58:43.006Z,7.60
